Time;durP1;ratioP1;P1;durP2;ratioP2;P2;SDS_P1;SDS_P2;PMS_P1;PMS_P2;Temp;Humidity;BMP_temperature;BMP_pressure;BME280_temperature;BME280_humidity;BME280_pressure;Samples;Min_cycle;Max_cycle;Signal;HPM_P1;HPM_P2
2023/04/19 00:02:08;;;;;;;11.27;7.83;;;;;;;8.30;100.00;99164.75;5033004;28;20270;-55
2023/04/19 00:04:36;;;;;;;10.30;8.00;;;;;;;8.25;100.00;99171.13;5036075;28;20316;-52
2023/04/19 00:07:05;;;;;;;11.40;7.50;;;;;;;8.19;100.00;99174.22;5021057;28;20233;-52
2023/04/19 00:09:31;;;;;;;12.63;8.17;;;;;;;8.11;100.00;99168.81;5020598;28;20234;-55
2023/04/19 00:11:58;;;;;;;11.60;7.67;;;;;;;8.04;100.00;99168.47;5031606;28;20240;-54
2023/04/19 00:14:24;;;;;;;15.77;8.17;;;;;;;7.97;100.00;99169.91;5025299;28;20284;-52
2023/04/19 00:16:51;;;;;;;10.43;7.60;;;;;;;7.96;100.00;99165.66;5020506;28;20264;-52
2023/04/19 00:19:17;;;;;;;12.10;7.97;;;;;;;7.94;100.00;99167.53;5036057;28;20274;-53
2023/04/19 00:21:44;;;;;;;10.17;7.57;;;;;;;7.82;100.00;99164.97;5034122;28;20930;-53
2023/04/19 00:24:12;;;;;;;11.33;7.57;;;;;;;7.79;100.00;99154.81;5032376;28;20227;-53
2023/04/19 00:26:38;;;;;;;10.53;7.63;;;;;;;7.66;100.00;99149.75;5024243;28;20235;-53
2023/04/19 00:29:06;;;;;;;9.77;7.17;;;;;;;7.66;100.00;99148.91;5030939;28;20217;-52
2023/04/19 00:31:33;;;;;;;10.80;6.73;;;;;;;7.62;100.00;99152.69;5016345;28;20706;-53
2023/04/19 00:33:59;;;;;;;11.05;8.50;;;;;;;7.74;100.00;99156.13;5013895;28;20990;-53
2023/04/19 00:36:26;;;;;;;11.13;7.33;;;;;;;7.69;100.00;99153.88;5039318;28;20261;-55
2023/04/19 00:38:53;;;;;;;10.43;6.60;;;;;;;7.71;100.00;99161.56;5021259;28;20227;-54
2023/04/19 00:41:21;;;;;;;12.83;7.23;;;;;;;7.70;100.00;99150.31;5017648;28;20225;-56
2023/04/19 00:43:47;;;;;;;9.97;6.67;;;;;;;7.72;100.00;99145.84;5008844;28;20231;-54
2023/04/19 00:46:14;;;;;;;8.77;6.47;;;;;;;7.78;100.00;99152.34;5013288;28;20244;-52
2023/04/19 00:48:41;;;;;;;14.43;8.57;;;;;;;7.87;100.00;99159.41;5001016;28;20224;-54
2023/04/19 00:51:09;;;;;;;10.57;7.30;;;;;;;8.01;100.00;99153.13;5010532;28;20247;-55
2023/04/19 00:53:36;;;;;;;10.73;8.03;;;;;;;8.18;100.00;99159.56;5008389;28;20237;-55
2023/04/19 00:56:05;;;;;;;10.50;7.57;;;;;;;8.35;100.00;99157.41;5000434;28;20229;-54
2023/04/19 00:58:33;;;;;;;11.23;8.20;;;;;;;8.54;100.00;99151.56;4999998;28;20232;-52
2023/04/19 01:00:59;;;;;;;12.60;8.57;;;;;;;8.78;100.00;99160.91;5008814;28;20228;-53
2023/04/19 01:03:27;;;;;;;13.83;8.77;;;;;;;8.92;100.00;99152.00;5012322;28;20225;-53
2023/04/19 01:05:55;;;;;;;13.03;9.53;;;;;;;8.99;100.00;99147.94;4996948;28;20240;-53
2023/04/19 01:08:22;;;;;;;14.77;9.57;;;;;;;9.06;100.00;99148.22;5013507;28;20785;-55
2023/04/19 01:10:48;;;;;;;15.67;9.13;;;;;;;9.10;100.00;99152.22;5011398;28;20220;-53
2023/04/19 01:13:15;;;;;;;13.93;8.93;;;;;;;9.16;99.19;99152.53;5017368;28;20220;-55
2023/04/19 01:15:43;;;;;;;13.20;9.27;;;;;;;9.18;98.56;99155.00;5008210;28;20223;-55
2023/04/19 01:18:10;;;;;;;13.40;8.63;;;;;;;9.21;99.24;99143.50;5033380;28;20312;-56
2023/04/19 01:20:36;;;;;;;13.70;8.20;;;;;;;9.26;97.33;99139.56;5034264;28;20227;-55
2023/04/19 01:23:04;;;;;;;13.77;9.93;;;;;;;9.34;96.85;99140.69;5008966;28;20234;-53
2023/04/19 01:25:37;;;;;;;13.27;9.37;;;;;;;9.30;97.89;99140.97;5015759;28;20245;-54
2023/04/19 01:28:05;;;;;;;16.63;9.53;;;;;;;9.33;97.83;99139.84;5011239;28;20269;-56
2023/04/19 01:30:36;;;;;;;17.10;9.70;;;;;;;9.35;96.67;99137.13;5014692;28;20620;-54
2023/04/19 01:33:03;;;;;;;14.70;9.70;;;;;;;9.34;97.05;99130.28;5013632;28;20237;-55
2023/04/19 01:35:36;;;;;;;14.23;9.50;;;;;;;9.34;96.92;99127.66;5016903;28;20217;-53
2023/04/19 01:38:04;;;;;;;16.33;9.80;;;;;;;9.34;96.71;99125.88;5017773;28;20565;-54
2023/04/19 01:40:37;;;;;;;14.07;10.07;;;;;;;9.38;97.14;99127.28;5030598;28;20754;-56
2023/04/19 01:43:04;;;;;;;15.50;10.27;;;;;;;9.33;96.32;99123.41;5012366;28;20237;-56
2023/04/19 01:45:36;;;;;;;14.30;9.67;;;;;;;9.30;96.35;99125.34;5032845;28;20597;-55
2023/04/19 01:48:04;;;;;;;15.20;9.97;;;;;;;9.32;96.01;99117.38;5002649;28;20685;-53
2023/04/19 01:50:36;;;;;;;13.93;9.40;;;;;;;9.34;96.72;99125.06;5015886;28;20237;-55
2023/04/19 01:53:04;;;;;;;15.80;9.73;;;;;;;9.32;96.30;99121.78;5012122;28;20230;-55
2023/04/19 01:55:37;;;;;;;15.03;10.27;;;;;;;9.29;95.83;99122.84;5014713;28;20226;-53
2023/04/19 01:58:04;;;;;;;15.80;9.63;;;;;;;9.36;96.33;99123.16;5007052;28;20223;-54
2023/04/19 02:00:34;;;;;;;14.60;9.03;;;;;;;9.34;96.48;99117.25;5017206;28;20737;-53
2023/04/19 02:03:04;;;;;;;15.10;10.13;;;;;;;9.33;96.51;99115.59;5012825;28;20304;-55
2023/04/19 02:05:38;;;;;;;16.80;10.63;;;;;;;9.34;95.55;99106.84;5031027;28;20237;-53
2023/04/19 02:08:05;;;;;;;16.37;10.57;;;;;;;9.34;95.61;99101.63;5014952;28;20215;-55
2023/04/19 02:10:37;;;;;;;15.53;10.20;;;;;;;9.34;96.71;99105.03;5035982;28;20623;-53
2023/04/19 02:13:03;;;;;;;15.27;10.33;;;;;;;9.33;95.68;99100.78;5030008;28;20227;-54
2023/04/19 02:15:55;;;;;;;14.70;10.30;;;;;;;9.33;96.23;99103.38;5035088;28;20224;-53
2023/04/19 02:18:22;;;;;;;14.93;10.27;;;;;;;9.32;96.17;99106.94;5035594;28;20253;-54
2023/04/19 02:20:50;;;;;;;17.20;9.83;;;;;;;9.36;96.06;99100.53;5014584;28;20240;-55
2023/04/19 02:23:16;;;;;;;14.80;9.40;;;;;;;9.35;95.04;99095.47;5019527;28;20251;-55
2023/04/19 02:25:44;;;;;;;17.20;9.90;;;;;;;9.30;95.67;99086.25;5018952;28;20225;-55
2023/04/19 02:28:14;;;;;;;15.50;9.73;;;;;;;9.32;95.60;99096.53;5012471;28;20238;-54
2023/04/19 02:30:41;;;;;;;13.13;9.13;;;;;;;9.33;95.69;99092.97;5017277;28;20222;-53
2023/04/19 02:33:07;;;;;;;15.33;10.03;;;;;;;9.32;95.46;99087.91;5010674;28;21370;-53
2023/04/19 02:35:36;;;;;;;17.80;11.13;;;;;;;9.32;95.75;99091.31;5014652;28;20232;-54
2023/04/19 02:38:04;;;;;;;14.80;9.77;;;;;;;9.29;96.60;99091.56;5016183;28;20228;-53
2023/04/19 02:40:36;;;;;;;16.20;10.43;;;;;;;9.32;96.45;99087.91;5030657;28;20283;-55
2023/04/19 02:43:04;;;;;;;17.33;10.60;;;;;;;9.32;95.96;99085.28;5012840;28;20294;-54
2023/04/19 02:45:36;;;;;;;16.37;10.47;;;;;;;9.32;96.47;99080.09;5033879;28;20242;-54
2023/04/19 02:48:02;;;;;;;16.50;10.53;;;;;;;9.28;95.09;99077.75;5030821;28;20236;-53
2023/04/19 02:50:54;;;;;;;15.57;9.80;;;;;;;9.28;95.47;99080.34;5032489;28;20247;-55
2023/04/19 02:53:21;;;;;;;15.03;9.90;;;;;;;9.28;96.48;99082.13;5024538;28;20228;-55
2023/04/19 02:55:49;;;;;;;17.30;11.13;;;;;;;9.31;95.45;99087.06;5015818;28;20232;-55
2023/04/19 02:58:20;;;;;;;16.23;9.80;;;;;;;9.35;95.24;99085.03;5018871;28;20237;-55
2023/04/19 03:01:01;;;;;;;17.17;10.17;;;;;;;9.36;95.77;99078.88;5022645;28;20245;-54
2023/04/19 03:03:28;;;;;;;15.17;9.83;;;;;;;9.34;95.25;99081.59;5012366;28;20232;-55
2023/04/19 03:05:54;;;;;;;16.00;10.00;;;;;;;9.30;95.40;99082.81;5016684;28;20226;-53
2023/04/19 03:08:21;;;;;;;15.57;10.07;;;;;;;9.24;95.81;99078.13;5013847;28;20307;-53
2023/04/19 03:10:48;;;;;;;16.23;10.27;;;;;;;9.23;96.58;99071.25;5024125;28;20238;-55
2023/04/19 03:13:14;;;;;;;14.37;9.67;;;;;;;9.19;96.21;99072.47;5014098;28;20286;-53
2023/04/19 03:15:43;;;;;;;14.80;9.67;;;;;;;9.19;96.69;99073.31;5014745;28;20233;-53
2023/04/19 03:18:10;;;;;;;17.50;10.00;;;;;;;9.22;96.41;99078.25;5014228;28;20236;-53
2023/04/19 03:20:38;;;;;;;14.27;10.23;;;;;;;9.17;96.63;99075.22;5017455;28;20740;-53
2023/04/19 03:23:05;;;;;;;15.80;10.23;;;;;;;9.17;97.66;99072.63;5014868;28;20638;-55
2023/04/19 03:25:36;;;;;;;15.57;10.13;;;;;;;9.09;98.12;99073.25;5032824;28;20280;-54
2023/04/19 03:28:25;;;;;;;16.90;10.57;;;;;;;9.03;98.18;99076.38;5026022;28;20222;-54
2023/04/19 03:31:13;;;;;;;19.87;10.50;;;;;;;8.99;98.63;99070.63;5238445;22;20228;-55
2023/04/19 03:33:40;;;;;;;16.93;11.33;;;;;;;8.98;98.90;99068.16;4994858;28;20251;-57
2023/04/19 03:36:09;;;;;;;18.67;12.03;;;;;;;9.01;98.89;99073.91;4993701;28;20228;-57
2023/04/19 03:38:37;;;;;;;19.80;11.80;;;;;;;8.99;98.72;99065.41;4997578;28;20223;-57
2023/04/19 03:41:18;;;;;;;16.07;10.63;;;;;;;8.98;98.67;99062.94;4992469;28;20320;-57
2023/04/19 03:43:45;;;;;;;21.23;10.73;;;;;;;8.98;98.70;99060.34;5013358;28;20236;-57
2023/04/19 03:46:13;;;;;;;17.80;11.43;;;;;;;8.93;99.33;99057.31;5010022;28;20221;-57
2023/04/19 03:48:40;;;;;;;17.40;10.93;;;;;;;8.98;98.52;99047.34;4997713;28;20214;-57
2023/04/19 03:51:06;;;;;;;17.47;10.20;;;;;;;8.96;98.15;99055.25;5002213;28;20222;-57
2023/04/19 03:53:34;;;;;;;16.37;10.97;;;;;;;8.97;98.16;99051.69;5001814;28;20682;-57
2023/04/19 03:56:00;;;;;;;15.93;9.80;;;;;;;8.92;98.21;99055.66;5002543;28;20754;-55
2023/04/19 03:58:28;;;;;;;14.40;9.70;;;;;;;8.88;98.29;99057.69;4996944;28;20256;-56
2023/04/19 04:01:02;;;;;;;17.63;11.07;;;;;;;8.82;99.96;99051.22;5001256;28;20242;-57
2023/04/19 04:03:30;;;;;;;17.13;10.00;;;;;;;8.79;100.00;99043.66;5005393;28;20232;-57
2023/04/19 04:05:57;;;;;;;18.53;10.80;;;;;;;8.77;100.00;99044.75;5006734;28;20626;-56
2023/04/19 04:08:23;;;;;;;18.40;10.93;;;;;;;8.74;100.00;99047.59;4998494;28;20603;-57
2023/04/19 04:10:50;;;;;;;16.67;9.00;;;;;;;8.77;100.00;99042.97;4991018;28;20224;-57
2023/04/19 04:13:16;;;;;;;15.27;10.30;;;;;;;8.71;100.00;99049.50;5008634;28;20225;-54
2023/04/19 04:15:50;;;;;;;19.30;11.37;;;;;;;8.81;100.00;99062.59;5001317;28;20223;-55
2023/04/19 04:18:17;;;;;;;16.83;10.77;;;;;;;8.82;99.68;99051.22;5003793;28;20225;-55
2023/04/19 04:20:45;;;;;;;18.23;10.93;;;;;;;8.84;99.20;99051.91;5003977;28;20231;-54
2023/04/19 04:23:13;;;;;;;18.30;10.53;;;;;;;8.85;99.83;99047.53;4994279;28;20220;-57
2023/04/19 04:25:45;;;;;;;16.97;11.13;;;;;;;8.82;99.52;99046.03;5000011;28;20228;-57
2023/04/19 04:28:13;;;;;;;18.10;10.63;;;;;;;8.80;100.00;99058.34;4993849;28;20231;-55
2023/04/19 04:30:41;;;;;;;15.80;9.90;;;;;;;8.75;100.00;99050.09;4997928;28;20299;-56
2023/04/19 04:33:11;;;;;;;20.53;9.50;;;;;;;8.75;100.00;99054.44;4997613;28;20676;-55
2023/04/19 04:35:40;;;;;;;16.13;10.90;;;;;;;8.78;99.97;99064.59;4994612;28;20270;-56
2023/04/19 04:38:14;;;;;;;16.60;10.03;;;;;;;8.80;99.97;99066.16;4994430;28;20228;-57
2023/04/19 04:40:41;;;;;;;14.80;9.47;;;;;;;8.81;100.00;99061.75;4992855;28;20224;-57
2023/04/19 04:43:08;;;;;;;14.53;9.67;;;;;;;8.81;100.00;99053.94;4995869;28;20245;-57
2023/04/19 04:45:37;;;;;;;17.97;10.50;;;;;;;8.77;100.00;99063.81;5010228;28;20299;-57
2023/04/19 04:48:04;;;;;;;14.60;9.47;;;;;;;8.77;100.00;99060.34;4990987;28;20234;-56
2023/04/19 04:50:37;;;;;;;15.77;9.33;;;;;;;8.78;100.00;99068.06;4996319;28;20310;-55
2023/04/19 04:53:04;;;;;;;11.50;8.60;;;;;;;8.79;100.00;99058.44;4995554;28;20224;-56
2023/04/19 04:55:38;;;;;;;12.47;8.50;;;;;;;8.76;100.00;99062.16;4994025;28;20546;-57
2023/04/19 04:58:05;;;;;;;15.43;10.03;;;;;;;8.80;100.00;99060.94;4992628;28;20264;-55
2023/04/19 05:00:49;;;;;;;17.07;9.83;;;;;;;8.80;100.00;99071.34;4996802;28;20233;-56
2023/04/19 05:03:16;;;;;;;12.83;9.00;;;;;;;8.83;100.00;99068.50;5003998;28;20873;-57
2023/04/19 05:05:48;;;;;;;18.57;11.37;;;;;;;8.86;100.00;99059.59;5000152;28;20300;-57
2023/04/19 05:08:14;;;;;;;17.10;10.97;;;;;;;8.91;100.00;99062.63;5002138;28;20224;-57
2023/04/19 05:10:42;;;;;;;15.53;10.10;;;;;;;8.98;100.00;99061.16;4997415;28;20236;-57
2023/04/19 05:13:09;;;;;;;15.80;8.80;;;;;;;9.04;100.00;99061.59;4993066;28;20566;-57
2023/04/19 05:15:37;;;;;;;12.90;8.70;;;;;;;9.09;100.00;99064.63;5003897;28;20295;-55
2023/04/19 05:18:04;;;;;;;16.50;9.20;;;;;;;9.10;100.00;99066.28;4995791;28;20314;-57
2023/04/19 05:20:37;;;;;;;22.07;16.77;;;;;;;9.25;99.88;99061.53;4995502;28;20581;-54
2023/04/19 05:23:11;;;;;;;17.23;12.87;;;;;;;9.29;98.11;99065.53;5004283;28;20234;-56
2023/04/19 05:25:38;;;;;;;15.80;10.67;;;;;;;9.42;97.73;99062.72;5002429;28;20232;-57
2023/04/19 05:28:06;;;;;;;20.13;13.37;;;;;;;9.40;97.25;99067.22;5004503;28;20237;-56
2023/04/19 05:30:53;;;;;;;16.03;10.77;;;;;;;9.45;98.08;99071.06;4993882;28;20307;-57
2023/04/19 05:33:22;;;;;;;15.43;9.80;;;;;;;9.55;96.35;99068.47;5005627;28;20225;-55
2023/04/19 05:35:50;;;;;;;17.53;9.50;;;;;;;9.62;95.77;99066.19;4990928;28;20264;-57
2023/04/19 05:38:17;;;;;;;16.17;11.10;;;;;;;9.70;95.38;99073.31;5007378;28;20228;-57
2023/04/19 05:40:44;;;;;;;15.63;9.90;;;;;;;9.86;95.88;99068.41;5000356;28;20644;-57
2023/04/19 05:43:16;;;;;;;15.90;9.83;;;;;;;9.88;95.29;99063.06;5011217;28;20237;-54
2023/04/19 05:45:43;;;;;;;15.27;9.87;;;;;;;9.87;94.38;99069.25;5014106;28;20287;-57
2023/04/19 05:48:09;;;;;;;15.73;9.77;;;;;;;10.02;94.38;99069.66;5014273;28;20238;-57
2023/04/19 05:51:09;;;;;;;18.33;10.93;;;;;;;9.85;93.06;99068.56;4991360;28;20283;-57
2023/04/19 05:54:00;;;;;;;17.57;10.43;;;;;;;9.47;94.55;99070.94;5000026;28;20716;-58
2023/04/19 05:56:26;;;;;;;17.30;10.63;;;;;;;9.63;95.36;99072.19;5001067;28;20218;-58
2023/04/19 05:58:55;;;;;;;16.43;10.10;;;;;;;9.69;93.91;99072.50;5002267;28;20233;-58
2023/04/19 06:01:21;;;;;;;16.50;9.70;;;;;;;9.91;95.05;99060.19;5001206;28;20232;-58
2023/04/19 06:03:51;;;;;;;16.47;11.33;;;;;;;9.91;93.00;99070.63;4992410;28;20502;-57
2023/04/19 06:06:18;;;;;;;15.00;9.90;;;;;;;9.95;92.73;99066.78;5014669;28;20311;-57
2023/04/19 06:08:44;;;;;;;18.03;10.40;;;;;;;10.02;92.17;99070.50;4998511;28;20628;-57
2023/04/19 06:11:11;;;;;;;16.33;11.47;;;;;;;10.18;91.37;99064.72;5001713;28;20793;-57
2023/04/19 06:13:38;;;;;;;16.43;10.37;;;;;;;10.22;92.33;99080.13;5009540;28;20225;-56
2023/04/19 06:16:07;;;;;;;18.13;10.57;;;;;;;10.01;91.63;99070.63;5010860;28;20292;-53
2023/04/19 06:18:34;;;;;;;16.03;10.63;;;;;;;10.20;91.31;99082.84;5012080;28;20241;-56
2023/04/19 06:21:00;;;;;;;15.37;9.80;;;;;;;10.27;89.42;99085.75;5009824;28;20281;-57
2023/04/19 06:23:27;;;;;;;14.23;9.63;;;;;;;10.40;89.31;99085.47;5015131;28;20698;-55
2023/04/19 06:25:53;;;;;;;16.37;10.47;;;;;;;10.53;88.12;99087.81;5013188;28;20240;-56
2023/04/19 06:28:20;;;;;;;19.80;12.20;;;;;;;10.38;87.75;99084.75;5014224;28;20904;-56
2023/04/19 06:30:47;;;;;;;16.23;10.87;;;;;;;10.50;87.79;99075.88;5015381;28;20369;-53
2023/04/19 06:33:15;;;;;;;19.73;12.57;;;;;;;10.38;87.88;99077.78;4992716;28;20230;-54
2023/04/19 06:35:42;;;;;;;17.03;10.60;;;;;;;10.59;86.79;99082.84;5014782;28;20218;-56
2023/04/19 06:38:08;;;;;;;20.03;12.27;;;;;;;10.54;87.90;99082.44;5010895;28;20240;-56
2023/04/19 06:40:36;;;;;;;18.70;10.93;;;;;;;10.62;87.70;99084.34;5002769;28;20223;-57
2023/04/19 06:43:02;;;;;;;18.23;10.93;;;;;;;10.70;87.09;99079.25;5011107;28;20279;-57
2023/04/19 06:45:33;;;;;;;15.60;9.93;;;;;;;10.72;86.87;99079.94;5014722;28;20227;-57
2023/04/19 06:47:59;;;;;;;17.53;11.27;;;;;;;10.69;87.04;99084.63;5011976;28;20573;-56
2023/04/19 06:50:27;;;;;;;16.07;10.27;;;;;;;10.66;87.63;99085.72;5000176;28;20226;-54
2023/04/19 06:52:54;;;;;;;16.63;10.83;;;;;;;10.67;87.89;99081.34;5005609;28;20221;-56
2023/04/19 06:55:21;;;;;;;18.10;12.07;;;;;;;10.86;86.34;99075.25;5015208;28;20290;-55
2023/04/19 06:57:47;;;;;;;16.43;10.83;;;;;;;11.14;85.60;99083.13;5011545;28;20245;-56
2023/04/19 07:00:15;;;;;;;16.57;10.60;;;;;;;11.56;84.13;99076.63;5012577;28;20702;-54
2023/04/19 07:02:41;;;;;;;17.23;10.47;;;;;;;11.81;81.66;99085.53;4995242;28;20790;-56
2023/04/19 07:05:08;;;;;;;15.70;10.40;;;;;;;11.74;81.33;99080.09;5012737;28;20250;-55
2023/04/19 07:07:37;;;;;;;15.50;10.10;;;;;;;11.65;81.17;99081.81;5012314;28;20230;-57
2023/04/19 07:10:04;;;;;;;16.53;10.50;;;;;;;12.04;79.92;99088.59;5012826;28;20307;-57
2023/04/19 07:12:31;;;;;;;14.93;10.57;;;;;;;12.28;80.48;99083.75;5012632;28;20264;-57
2023/04/19 07:14:57;;;;;;;14.83;10.23;;;;;;;12.48;78.00;99082.59;5008601;28;20302;-55
2023/04/19 07:17:24;;;;;;;18.07;9.80;;;;;;;12.97;76.24;99084.72;5012720;28;20223;-57
2023/04/19 07:19:51;;;;;;;14.13;10.30;;;;;;;12.31;77.14;99081.63;5012608;28;20254;-56
2023/04/19 07:22:17;;;;;;;12.50;9.27;;;;;;;12.38;77.28;99079.25;5015537;28;20231;-57
2023/04/19 07:24:46;;;;;;;14.57;10.60;;;;;;;12.37;77.12;99081.03;5011787;28;20226;-57
2023/04/19 07:27:13;;;;;;;13.17;9.67;;;;;;;12.46;76.39;99081.94;5009298;28;20235;-57
2023/04/19 07:29:40;;;;;;;14.90;9.90;;;;;;;11.98;78.33;99077.88;5015087;28;20227;-57
2023/04/19 07:32:06;;;;;;;14.83;10.47;;;;;;;12.39;77.85;99079.09;5010581;28;20319;-57
2023/04/19 07:34:33;;;;;;;13.83;8.73;;;;;;;12.38;75.89;99082.66;5008729;28;20233;-57
2023/04/19 07:37:01;;;;;;;14.90;9.90;;;;;;;12.64;75.17;99081.09;5004817;28;20232;-56
2023/04/19 07:39:29;;;;;;;14.47;8.73;;;;;;;12.27;75.87;99075.06;5013520;28;20232;-57
2023/04/19 07:41:57;;;;;;;11.50;8.73;;;;;;;12.17;76.34;99075.13;5010258;28;20326;-56
2023/04/19 07:44:24;;;;;;;15.07;9.73;;;;;;;12.00;77.03;99078.56;5009514;28;20228;-54
2023/04/19 07:46:51;;;;;;;18.60;11.83;;;;;;;12.46;76.66;99081.94;4990649;28;20234;-57
2023/04/19 07:49:18;;;;;;;259.70;116.27;;;;;;;12.30;74.02;99082.59;5014308;28;20667;-56
2023/04/19 07:51:44;;;;;;;13.30;9.83;;;;;;;12.76;73.33;99076.41;5012943;28;20310;-57
2023/04/19 07:54:11;;;;;;;403.90;190.70;;;;;;;12.92;72.96;99080.91;5010360;28;20235;-57
2023/04/19 07:56:37;;;;;;;15.13;10.03;;;;;;;13.10;71.62;99081.69;5015688;28;20235;-57
2023/04/19 07:59:05;;;;;;;9.87;7.77;;;;;;;12.82;71.36;99079.22;5011323;28;20235;-57
2023/04/19 08:01:32;;;;;;;12.13;8.03;;;;;;;12.40;72.30;99080.72;5013761;28;20235;-57
2023/04/19 08:03:58;;;;;;;12.93;7.70;;;;;;;12.59;73.08;99078.09;5002618;28;20242;-55
2023/04/19 08:06:25;;;;;;;13.07;9.87;;;;;;;12.28;73.63;99081.94;5018446;28;21054;-57
2023/04/19 08:08:52;;;;;;;13.37;10.10;;;;;;;11.56;75.19;99077.47;5010523;28;20223;-56
2023/04/19 08:11:18;;;;;;;10.67;8.60;;;;;;;11.88;75.09;99075.34;5014792;28;20222;-56
2023/04/19 08:13:45;;;;;;;11.73;8.93;;;;;;;11.99;75.52;99072.50;5017570;28;20234;-57
2023/04/19 08:16:13;;;;;;;13.63;9.50;;;;;;;12.22;75.00;99075.50;5012312;28;20239;-57
2023/04/19 08:18:39;;;;;;;11.80;9.03;;;;;;;12.65;73.57;99069.63;5011478;28;20223;-58
2023/04/19 08:21:06;;;;;;;11.50;8.00;;;;;;;12.98;72.57;99075.06;5014036;28;20285;-57
2023/04/19 08:23:33;;;;;;;10.90;8.00;;;;;;;13.10;69.60;99078.25;5014710;28;20227;-58
2023/04/19 08:25:59;;;;;;;9.17;7.23;;;;;;;12.65;71.54;99070.44;5007708;28;20224;-55
2023/04/19 08:28:28;;;;;;;10.00;7.93;;;;;;;13.01;71.18;99072.13;5012898;28;20227;-58
2023/04/19 08:30:55;;;;;;;9.80;6.13;;;;;;;13.24;68.66;99067.19;5008708;28;20291;-58
2023/04/19 08:33:23;;;;;;;8.10;6.43;;;;;;;13.68;68.15;99066.22;5013653;28;20457;-58
2023/04/19 08:35:49;;;;;;;6.03;4.97;;;;;;;14.23;66.66;99065.78;5010068;28;20224;-58
2023/04/19 08:38:16;;;;;;;6.67;5.17;;;;;;;14.72;65.66;99064.97;5012106;28;20275;-57
2023/04/19 08:40:47;;;;;;;8.37;5.70;;;;;;;14.76;60.59;99067.09;5019917;28;20282;-58
2023/04/19 08:43:13;;;;;;;7.30;5.10;;;;;;;14.70;59.49;99062.50;5005644;28;20315;-58
2023/04/19 08:45:40;;;;;;;7.77;5.27;;;;;;;14.73;60.10;99064.00;5013028;28;20238;-58
2023/04/19 08:48:10;;;;;;;6.13;5.23;;;;;;;14.48;60.91;99069.22;5009533;28;20225;-59
2023/04/19 08:50:40;;;;;;;7.37;5.80;;;;;;;14.39;60.90;99068.41;5013863;28;20554;-57
2023/04/19 08:53:07;;;;;;;6.97;5.83;;;;;;;13.63;63.41;99068.50;5009221;28;20236;-57
2023/04/19 08:55:38;;;;;;;7.27;5.30;;;;;;;13.21;66.98;99072.72;5012205;28;20639;-58
2023/04/19 08:58:04;;;;;;;8.50;5.70;;;;;;;13.03;67.04;99075.41;5013797;28;20697;-56
2023/04/19 09:00:39;;;;;;;7.13;5.70;;;;;;;13.47;65.91;99068.44;5015609;28;20208;-57
2023/04/19 09:03:07;;;;;;;7.93;5.60;;;;;;;13.21;66.29;99064.03;5013050;28;20242;-55
2023/04/19 09:05:40;;;;;;;9.57;6.57;;;;;;;13.28;66.47;99070.28;5014182;28;20225;-57
2023/04/19 09:08:25;;;;;;;7.60;5.87;;;;;;;13.88;64.71;99063.28;5013806;28;20224;-57
2023/04/19 09:10:56;;;;;;;7.43;6.13;;;;;;;13.58;64.06;99074.19;5014488;28;20292;-55
2023/04/19 09:13:23;;;;;;;8.63;6.30;;;;;;;13.07;65.95;99068.06;5014896;28;20216;-56
2023/04/19 09:15:50;;;;;;;10.20;6.90;;;;;;;12.98;67.78;99065.41;5018064;28;20225;-57
2023/04/19 09:18:18;;;;;;;9.40;7.30;;;;;;;13.29;66.17;99057.00;5017876;28;20329;-56
2023/04/19 09:20:46;;;;;;;9.70;7.00;;;;;;;13.06;67.49;99064.63;5016189;28;20316;-56
2023/04/19 09:23:16;;;;;;;8.83;6.90;;;;;;;13.71;65.32;99059.81;5014184;28;20232;-57
2023/04/19 09:25:52;;;;;;;10.77;6.57;;;;;;;13.83;66.57;99055.06;5012040;28;20691;-58
2023/04/19 09:28:19;;;;;;;10.77;7.40;;;;;;;13.97;63.62;99048.38;5011363;28;20661;-57
2023/04/19 09:30:46;;;;;;;10.73;7.37;;;;;;;13.12;65.85;99047.47;5018140;28;20281;-57
2023/04/19 09:33:13;;;;;;;12.23;7.40;;;;;;;13.11;67.26;99051.88;5016105;28;20230;-57
2023/04/19 09:35:41;;;;;;;11.30;7.37;;;;;;;13.81;65.93;99051.78;5013634;28;20234;-56
2023/04/19 09:38:09;;;;;;;9.50;7.43;;;;;;;13.83;64.43;99049.81;5013733;28;20287;-56
2023/04/19 09:40:37;;;;;;;10.87;7.93;;;;;;;13.58;65.66;99042.72;5014264;28;20225;-55
2023/04/19 09:43:04;;;;;;;11.77;7.23;;;;;;;14.23;64.00;99047.41;5011542;28;20221;-55
2023/04/19 09:45:41;;;;;;;9.40;6.97;;;;;;;14.18;62.66;99040.03;5015360;28;20228;-57
2023/04/19 09:48:08;;;;;;;10.87;7.90;;;;;;;14.25;63.34;99034.94;5013245;28;21765;-57
2023/04/19 09:50:50;;;;;;;11.43;8.13;;;;;;;14.01;64.57;99026.88;5015612;28;20216;-56
2023/04/19 09:53:18;;;;;;;11.33;6.97;;;;;;;13.89;63.79;99030.81;5015680;28;20545;-57
2023/04/19 09:55:46;;;;;;;11.50;7.00;;;;;;;13.70;63.56;99030.16;5016434;28;20221;-57
2023/04/19 09:58:13;;;;;;;9.17;7.73;;;;;;;13.77;62.44;99025.06;5011462;28;20580;-56
2023/04/19 10:00:41;;;;;;;11.23;7.00;;;;;;;13.50;64.67;99034.03;5016123;28;20221;-54
2023/04/19 10:03:09;;;;;;;9.37;6.57;;;;;;;14.10;61.46;99024.25;5011911;28;20227;-57
2023/04/19 10:05:39;;;;;;;8.57;6.53;;;;;;;13.77;61.46;99021.63;5011766;28;20232;-57
2023/04/19 10:08:07;;;;;;;10.30;7.10;;;;;;;13.86;60.42;99021.47;5009520;28;20239;-55
2023/04/19 10:10:39;;;;;;;10.53;7.13;;;;;;;14.06;59.90;99015.06;5015476;28;20279;-54
2023/04/19 10:13:07;;;;;;;7.27;6.03;;;;;;;13.69;60.16;99012.75;5012740;28;20636;-57
2023/04/19 10:15:37;;;;;;;12.27;7.43;;;;;;;14.16;59.49;99013.94;5015357;28;20250;-57
2023/04/19 10:18:04;;;;;;;9.17;6.50;;;;;;;14.26;60.12;99019.00;5011113;28;20247;-57
2023/04/19 10:20:42;;;;;;;9.67;6.77;;;;;;;14.38;59.44;99011.59;4998855;28;20690;-56
2023/04/19 10:23:08;;;;;;;8.90;6.43;;;;;;;13.89;61.84;99004.56;4994603;28;20244;-57
2023/04/19 10:25:38;;;;;;;10.27;6.50;;;;;;;13.60;60.78;99002.41;5011834;28;20235;-57
2023/04/19 10:28:05;;;;;;;10.30;6.93;;;;;;;13.79;60.21;98998.66;5011277;28;20283;-57
2023/04/19 10:30:36;;;;;;;8.03;6.03;;;;;;;13.91;60.98;98994.72;5013875;28;20228;-57
2023/04/19 10:33:03;;;;;;;11.03;7.23;;;;;;;13.71;60.62;99002.94;5014725;28;20278;-57
2023/04/19 10:35:37;;;;;;;13.63;6.97;;;;;;;13.81;60.31;98994.91;5016638;28;20216;-57
2023/04/19 10:38:06;;;;;;;9.30;6.60;;;;;;;14.06;58.68;98986.19;5011880;28;20235;-58
2023/04/19 10:41:02;;;;;;;10.83;7.07;;;;;;;13.95;57.42;98980.28;5014397;28;20659;-57
2023/04/19 10:43:33;;;;;;;10.27;6.60;;;;;;;14.41;58.83;98979.75;4998500;28;20252;-57
2023/04/19 10:46:01;;;;;;;8.90;6.50;;;;;;;14.56;57.69;98979.06;5011999;28;20228;-58
2023/04/19 10:48:37;;;;;;;7.60;5.10;;;;;;;14.33;56.87;98977.16;5013384;28;20261;-56
2023/04/19 10:51:06;;;;;;;9.50;6.90;;;;;;;14.45;56.99;98978.44;5011507;28;20223;-56
2023/04/19 10:53:46;;;;;;;13.33;7.10;;;;;;;14.70;56.91;98967.09;5013990;28;21095;-55
2023/04/19 10:56:15;;;;;;;8.13;6.27;;;;;;;15.02;54.68;98957.44;5010753;28;20298;-54
2023/04/19 10:59:22;;;;;;;8.87;6.60;;;;;;;15.45;54.35;98949.13;5013435;28;20226;-56
2023/04/19 11:01:51;;;;;;;7.33;5.23;;;;;;;15.78;52.61;98960.28;5007371;28;20227;-57
2023/04/19 11:04:19;;;;;;;6.40;5.20;;;;;;;16.00;51.13;98955.16;5015190;28;20227;-57
2023/04/19 11:07:06;;;;;;;9.17;6.23;;;;;;;15.01;56.74;98953.16;5014270;28;20241;-57
2023/04/19 11:09:37;;;;;;;8.83;6.10;;;;;;;15.11;56.35;98952.97;5012923;28;20730;-56
2023/04/19 11:12:07;;;;;;;8.33;6.17;;;;;;;15.56;56.31;98945.31;5012534;28;20240;-57
2023/04/19 11:14:35;;;;;;;8.80;6.80;;;;;;;15.55;54.21;98944.47;5005365;28;20231;-56
2023/04/19 11:17:04;;;;;;;9.17;6.63;;;;;;;15.57;54.87;98939.84;5010622;28;20628;-56
2023/04/19 11:19:31;;;;;;;13.13;7.20;;;;;;;15.38;55.27;98942.94;5016329;28;20232;-55
2023/04/19 11:21:59;;;;;;;11.63;6.97;;;;;;;14.97;57.84;98933.47;5008031;28;20287;-56
2023/04/19 11:24:25;;;;;;;9.80;6.90;;;;;;;15.46;56.10;98935.00;5011517;28;20309;-57
2023/04/19 11:26:52;;;;;;;10.10;7.37;;;;;;;15.53;55.98;98932.50;5010752;28;20230;-57
2023/04/19 11:29:21;;;;;;;10.03;6.10;;;;;;;15.33;55.67;98930.31;5014552;28;20224;-57
2023/04/19 11:31:48;;;;;;;8.97;6.57;;;;;;;15.21;56.87;98935.16;5011772;28;20229;-57
2023/04/19 11:34:14;;;;;;;10.53;6.37;;;;;;;15.20;55.10;98928.28;5011840;28;20227;-57
2023/04/19 11:36:49;;;;;;;8.87;5.93;;;;;;;14.72;55.44;98930.97;5016416;28;20752;-57